In Rescue
 
Open Full Screen Window  High Contrast Mode
Wind Gusting 14 knots
09
July 13, 2020 11:33 AM EDT
Weather Information
Wind Direction
  320 °
Wind Speed
  09 kt (10 mph)
Wind Gust
  14 kt (16 mph)
Altimeter
30.02 in
Visibility
10 SM
Temperature
23° C
73° F
Dewpoint
11° C
52° F
Humidity
47%
Sky Condition
Scattered @ 3,500 ft
VFR

METAR KCAD 131533Z AUTO 32009G14KT 10SM SCT035 23/11 A3002 RMK AO2 T02310116

FAA Disclaimer: The data displayed is for advisory purposes only and is not to be used for flight planning or operations.